Detall de PIREP

Printer-friendly versionPDF version

[2012/10/07 09:22:00]
Flight IATA:CT1003
Pilot Number:012
Company ICAO:CAT
Aircraft Type:A343/E
PAX:212
Departing Airport: LHBP
Destination Airport: LEPA
Alternate Airport:LEBL
Online: VATSIM
Route:GILEP/M070F380 UP976 DETSA/M080F390 UM984 DIVKO UN852 VERSO UL129 LUNIK
Flight Level:F390
No Slew and time accel
No pause
Crash detect
Detect pilot in Cockpit between each 30 and 45 minutes
09:22 Zero fuel Weight: 329709 Lbs, Fuel Weight: 63337 Lbs
09:22 VATSIM:LHBP 070900Z VRB02KT 8000 NSC 16/13 Q1013 NOSIG
09:22 VATSIM:LEPA 070900Z 23007KT 200V280 9999 FEW015 25/20 Q1021 NOSIG
09:22 VOICE CATALONIAN / CPT LEPA
09:23 Parking Brakes off
09:28 Take-off
09:28 Take off Weight: 391725 Lbs
09:28 Wind: 357º @ 002 Knots Heading: 131º
09:28 POS N47º 26´ 08´´ E019º 16´ 28´´
09:28 Gear Up: 169 Knots
09:28 Flaps:2 at 169 Knots
09:29 Flaps:1 at 197 Knots
09:29 Flaps:0 at 213 Knots
09:43 Wind:244º@054 Knots Heading: 249º Ground Speed: 396 Knots Altitude 35728 ft
09:58 Wind:300º@070 Knots Heading: 267º Ground Speed: 413 Knots Altitude 37995 ft
10:07 TOC
10:07 Fuel Weight: 50459 Lb
10:13 Wind:313º@105 Knots Heading: 271º Ground Speed: 396 Knots Altitude 39114 ft
10:28 Wind:318º@096 Knots Heading: 244º Ground Speed: 445 Knots Altitude 39068 ft
10:43 Wind:318º@085 Knots Heading: 224º Ground Speed: 484 Knots Altitude 39064 ft
10:58 Wind:325º@059 Knots Heading: 254º Ground Speed: 455 Knots Altitude 39081 ft
11:13 Wind:316º@049 Knots Heading: 221º Ground Speed: 477 Knots Altitude 39183 ft
11:17 TOD
11:17 Fuel Weight: 36570 Lb
11:28 Wind:310º@019 Knots Heading: 204º Ground Speed: 345 Knots Altitude 15944 ft
11:37 Flaps:1 at 242 Knots
11:43 Wind:300º@007 Knots Heading: 246º Ground Speed: 232 Knots Altitude 4475 ft
11:44 Flaps:3 at 168 Knots
11:44 Flaps:4 at 140 Knots
11:44 Gear Down: 139 Knots
11:46 Flaps:1 at 138 Knots
11:46 Gear Up: 138 Knots
11:46 Flaps:0 at 138 Knots
11:51 Flaps:1 at 221 Knots
11:53 Flaps:3 at 197 Knots
11:55 Gear Down: 173 Knots
11:55 Flaps:4 at 156 Knots
11:56 Flaps:5 at 140 Knots
11:58 Wind:221º@005 Knots Heading: 238º Ground Speed: 137 Knots Altitude 626 ft
11:58 TouchDown:Rate -222 ft/min Speed: 121 Knots
11:59 VATSIM:LEPA 071130Z 20006KT 150V250 9999 FEW025 26/21 Q1020 NOSIG
11:59 Land
11:59 Wind:213º@005 Knots
11:59 Heading: 245º
11:59 Flight Duration: 02:31
11:59 Landing Weight: 359398 Lbs
11:59 POS N39º 32´ 55´´ E002º 44´ 49´´
12:04 Parking brakes on
12:04 Block to Block Duration: 02:41
12:04 Final Fuel: 28922 Lbls
12:04 Spent Fuel: 34415 Lbls
12:04 Flight Length: 992 NM
12:04 TOD Land Length: 201 NM

Exportar CSV

Powered by Drupal - Modified by Danger4k